Rafael Garcia, Argentina
Current Conditions -  °F | °C
As of 2:00 AM on Thursday 18 Dec 2014 (Local Time) from SACO Reporting Station
Thunderstorm Thunderstorm  
Wind Chill: 61°   Ceiling: 4000
Heat Index: 61°   Visibility: 2.1mi
Dew Point: 61°   Wind: 16mph
Humidity: 100%   Direction: 290°WNW
Pressure: 30.12"   Gusts: NA
Location:  31.65°S, 64.26°W
Report Text: SACO 180500Z 29014KT 3500 TSRA SCT012 FEW035CB BKN040 16/16 Q1020 RMK CB OBS TO W NW
Loading
Personal Weather Stations






























Interactive Weather Map New forecast layout! Learn more

10-Day Weather Forecast

Advertisements
Track Severe Weather on mobile